Time;durP1;ratioP1;P1;durP2;ratioP2;P2;SDS_P1;SDS_P2;PMS_P1;PMS_P2;Temp;Humidity;BMP_temperature;BMP_pressure;BME280_temperature;BME280_humidity;BME280_pressure;Samples;Min_cycle;Max_cycle;Signal;HPM_P1;HPM_P2
2024/01/24 00:00:31;;;;;;;10.13;2.70;;;9.50;99.90;;;;;;5048521;28;20891;-76
2024/01/24 00:03:17;;;;;;;7.87;3.30;;;9.60;99.90;;;;;;5046943;28;20517;-76
2024/01/24 00:06:03;;;;;;;7.27;2.70;;;9.60;99.90;;;;;;5042021;28;20957;-76
2024/01/24 00:08:50;;;;;;;9.53;2.57;;;9.60;99.90;;;;;;5048007;28;20979;-76
2024/01/24 00:11:36;;;;;;;8.90;2.63;;;9.60;99.90;;;;;;5026107;28;20427;-76
2024/01/24 00:14:23;;;;;;;9.83;2.30;;;9.70;99.90;;;;;;5048484;28;20437;-76
2024/01/24 00:17:09;;;;;;;12.33;2.37;;;9.70;99.90;;;;;;5049131;28;20430;-76
2024/01/24 00:19:55;;;;;;;14.67;2.77;;;9.70;99.90;;;;;;5049040;28;20454;-76
2024/01/24 00:22:41;;;;;;;9.17;3.00;;;9.70;99.90;;;;;;5042046;28;20529;-76
2024/01/24 00:25:26;;;;;;;16.47;2.90;;;9.80;99.90;;;;;;5052314;28;20435;-76
2024/01/24 00:28:15;;;;;;;21.00;5.43;;;9.80;99.90;;;;;;5044211;28;20565;-76
2024/01/24 00:31:01;;;;;;;7.53;3.07;;;9.80;99.90;;;;;;5053036;28;20729;-76
2024/01/24 00:33:48;;;;;;;12.70;2.50;;;9.80;99.90;;;;;;5040362;28;20856;-76
2024/01/24 00:36:34;;;;;;;9.03;3.20;;;9.90;99.90;;;;;;5037060;28;20580;-76
2024/01/24 00:39:20;;;;;;;7.77;2.73;;;10.00;99.90;;;;;;5052072;28;20981;-76
2024/01/24 00:42:07;;;;;;;12.23;2.37;;;10.00;99.90;;;;;;5052563;28;21008;-76
2024/01/24 00:44:53;;;;;;;11.00;2.87;;;10.00;99.90;;;;;;5035643;28;20570;-76
2024/01/24 00:47:39;;;;;;;11.33;2.20;;;10.00;99.90;;;;;;5044527;28;20478;-76
2024/01/24 00:50:26;;;;;;;11.37;2.80;;;10.00;99.90;;;;;;5052226;28;20458;-76
2024/01/24 00:53:16;;;;;;;11.27;2.93;;;10.00;99.90;;;;;;5046825;28;20423;-76
2024/01/24 00:56:03;;;;;;;13.40;2.50;;;10.10;99.90;;;;;;5053118;28;20434;-76
2024/01/24 00:58:48;;;;;;;13.60;3.20;;;10.10;99.90;;;;;;5039913;28;20455;-76
2024/01/24 01:01:34;;;;;;;8.73;2.40;;;10.10;99.90;;;;;;5032641;28;20471;-76
2024/01/24 01:04:19;;;;;;;11.67;2.83;;;10.10;99.90;;;;;;5049172;28;20480;-76
2024/01/24 01:07:06;;;;;;;5.97;2.30;;;10.20;99.90;;;;;;5035838;28;20802;-76
2024/01/24 01:09:52;;;;;;;9.93;2.60;;;10.20;99.90;;;;;;5027389;28;20566;-76
2024/01/24 01:12:37;;;;;;;11.23;2.57;;;10.20;99.90;;;;;;5033432;28;20582;-76
2024/01/24 01:15:24;;;;;;;8.57;2.03;;;10.20;99.90;;;;;;5043017;28;20435;-76
2024/01/24 01:18:11;;;;;;;5.30;2.53;;;10.20;99.90;;;;;;5036013;28;21017;-76
2024/01/24 01:20:57;;;;;;;11.27;2.67;;;10.30;99.90;;;;;;5030497;28;20469;-76
2024/01/24 01:23:44;;;;;;;9.77;2.30;;;10.30;99.90;;;;;;5027092;28;20557;-76
2024/01/24 01:26:32;;;;;;;12.40;2.33;;;10.30;99.90;;;;;;5043635;28;20915;-76
2024/01/24 01:29:17;;;;;;;7.80;2.13;;;10.30;99.90;;;;;;5036541;28;20466;-76
2024/01/24 01:32:04;;;;;;;6.60;2.80;;;10.30;99.90;;;;;;5044712;28;20478;-75
2024/01/24 01:34:50;;;;;;;10.90;2.40;;;10.40;99.90;;;;;;5031868;28;20941;-77
2024/01/24 01:37:37;;;;;;;8.40;2.57;;;10.40;99.90;;;;;;5044175;28;20423;-76
2024/01/24 01:40:25;;;;;;;17.90;2.30;;;10.40;99.90;;;;;;5042239;28;20495;-77
2024/01/24 01:43:14;;;;;;;6.80;2.63;;;10.40;99.90;;;;;;5041191;28;20798;-76
2024/01/24 01:46:06;;;;;;;4.90;1.87;;;10.40;99.90;;;;;;5036313;28;20455;-77
2024/01/24 01:48:54;;;;;;;12.67;2.23;;;10.50;99.90;;;;;;5027331;28;20448;-77
2024/01/24 01:51:40;;;;;;;8.80;2.03;;;10.50;99.90;;;;;;5028278;28;20475;-77
2024/01/24 01:54:27;;;;;;;6.13;3.70;;;10.50;99.90;;;;;;5048106;28;20443;-77
2024/01/24 01:57:14;;;;;;;8.90;2.23;;;10.50;99.90;;;;;;5032789;28;20582;-77
2024/01/24 02:00:00;;;;;;;8.03;2.10;;;10.50;99.90;;;;;;5044224;28;20566;-77
2024/01/24 02:02:47;;;;;;;10.30;1.73;;;10.50;99.90;;;;;;5026697;28;20483;-77
2024/01/24 02:05:32;;;;;;;11.27;2.00;;;10.50;99.90;;;;;;5032884;28;20957;-76
2024/01/24 02:08:18;;;;;;;6.97;1.77;;;10.60;99.90;;;;;;5033859;28;20462;-76
2024/01/24 02:11:04;;;;;;;6.33;1.67;;;10.60;99.90;;;;;;5039143;28;20429;-76
2024/01/24 02:13:57;;;;;;;6.93;2.57;;;10.60;99.90;;;;;;5033520;28;20957;-76
2024/01/24 02:16:42;;;;;;;11.97;2.23;;;10.60;99.90;;;;;;5033819;28;20467;-76
2024/01/24 02:19:28;;;;;;;11.63;2.00;;;10.60;99.90;;;;;;5039243;28;20455;-76
2024/01/24 02:22:14;;;;;;;10.70;2.17;;;10.60;99.90;;;;;;5037388;28;20915;-76
2024/01/24 02:25:01;;;;;;;12.13;2.43;;;10.60;99.90;;;;;;5035988;28;20435;-76
2024/01/24 02:27:46;;;;;;;7.23;2.13;;;10.60;99.90;;;;;;5025457;28;20898;-76
2024/01/24 02:30:32;;;;;;;7.10;2.20;;;10.60;99.90;;;;;;5040761;28;20482;-76
2024/01/24 02:33:18;;;;;;;7.37;1.93;;;10.60;99.90;;;;;;5040019;28;21005;-76
2024/01/24 02:36:04;;;;;;;8.03;2.40;;;10.70;99.90;;;;;;5033243;28;20439;-76
2024/01/24 02:38:50;;;;;;;9.60;2.37;;;10.70;99.90;;;;;;5034182;28;20989;-76
2024/01/24 02:41:40;;;;;;;9.00;1.80;;;10.70;99.90;;;;;;5032052;28;20535;-76
2024/01/24 02:44:26;;;;;;;10.93;2.50;;;10.60;99.90;;;;;;5033934;28;20452;-75
2024/01/24 02:47:11;;;;;;;7.30;2.23;;;10.70;99.90;;;;;;5032746;28;20435;-76
2024/01/24 02:50:01;;;;;;;10.93;1.80;;;10.70;99.90;;;;;;5033323;28;20450;-76
2024/01/24 02:52:47;;;;;;;7.80;1.90;;;10.70;99.90;;;;;;5037571;28;20858;-76
2024/01/24 02:55:33;;;;;;;6.27;1.97;;;10.80;99.90;;;;;;5041056;28;20438;-76
2024/01/24 02:58:20;;;;;;;8.80;1.73;;;10.80;99.90;;;;;;5041242;28;20590;-76
2024/01/24 03:01:06;;;;;;;5.00;1.50;;;10.80;99.90;;;;;;5036204;28;20438;-76
2024/01/24 03:03:51;;;;;;;13.80;2.40;;;10.80;99.90;;;;;;5031411;28;20415;-76
2024/01/24 03:06:37;;;;;;;8.10;1.53;;;10.80;99.90;;;;;;5033330;28;20446;-76
2024/01/24 03:09:23;;;;;;;4.07;2.00;;;10.90;99.90;;;;;;5032559;28;20447;-76
2024/01/24 03:12:08;;;;;;;6.43;1.63;;;10.90;99.90;;;;;;5032918;28;20485;-76
2024/01/24 03:14:55;;;;;;;3.87;1.40;;;11.00;99.90;;;;;;5028207;28;20430;-76
2024/01/24 03:17:41;;;;;;;8.87;1.67;;;11.00;99.90;;;;;;5034489;28;20440;-76
2024/01/24 03:20:27;;;;;;;7.90;2.63;;;11.20;99.90;;;;;;5041948;28;20454;-76
2024/01/24 03:23:13;;;;;;;6.00;2.20;;;11.20;99.90;;;;;;5037667;28;20432;-76
2024/01/24 03:25:59;;;;;;;7.73;1.73;;;11.20;99.90;;;;;;5035704;28;20950;-76
2024/01/24 03:28:44;;;;;;;8.13;1.90;;;11.30;99.90;;;;;;5031760;28;20619;-76
2024/01/24 03:31:31;;;;;;;5.60;2.10;;;11.30;99.90;;;;;;5035438;28;21011;-76
2024/01/24 03:34:17;;;;;;;6.67;1.50;;;11.40;99.90;;;;;;5040088;28;20538;-76
2024/01/24 03:37:02;;;;;;;5.97;2.97;;;11.40;99.90;;;;;;5026362;28;20435;-76
2024/01/24 03:39:48;;;;;;;9.40;2.33;;;11.40;99.90;;;;;;5044094;28;20501;-76
2024/01/24 03:42:34;;;;;;;8.23;1.93;;;11.40;99.90;;;;;;5034689;28;20434;-76
2024/01/24 03:45:19;;;;;;;8.97;2.10;;;11.50;99.90;;;;;;5041867;28;20509;-76
2024/01/24 03:48:07;;;;;;;3.53;1.30;;;11.50;99.90;;;;;;5035935;28;20451;-76
2024/01/24 03:50:53;;;;;;;5.57;1.67;;;11.50;99.90;;;;;;5036626;28;20488;-76
2024/01/24 03:53:39;;;;;;;5.83;1.80;;;11.60;99.90;;;;;;5032450;28;20520;-76
2024/01/24 03:56:24;;;;;;;5.43;1.27;;;11.60;99.90;;;;;;5041610;28;20436;-76
2024/01/24 03:59:10;;;;;;;4.23;1.80;;;11.60;99.90;;;;;;5035903;28;20458;-76
2024/01/24 04:01:56;;;;;;;4.03;1.47;;;11.60;99.90;;;;;;5039239;28;20878;-76
2024/01/24 04:04:43;;;;;;;2.90;1.33;;;11.60;99.90;;;;;;5036879;28;20931;-76
2024/01/24 04:07:28;;;;;;;6.67;1.50;;;11.60;99.90;;;;;;5036583;28;20779;-76
2024/01/24 04:10:15;;;;;;;4.40;1.47;;;11.60;99.90;;;;;;5042875;28;21014;-76
2024/01/24 04:13:01;;;;;;;4.23;1.30;;;11.60;99.90;;;;;;5041760;28;20474;-76
2024/01/24 04:15:47;;;;;;;4.20;1.43;;;11.60;99.90;;;;;;5037595;28;20428;-76
2024/01/24 04:18:34;;;;;;;3.67;1.20;;;11.60;99.90;;;;;;5043087;28;20813;-76
2024/01/24 04:21:21;;;;;;;5.47;1.73;;;11.60;99.90;;;;;;5042382;28;20566;-76
2024/01/24 04:24:08;;;;;;;3.40;1.27;;;11.60;99.90;;;;;;5033902;28;20436;-76
2024/01/24 04:26:53;;;;;;;5.80;2.33;;;11.60;99.90;;;;;;5030424;28;20435;-76
2024/01/24 04:29:39;;;;;;;6.20;2.03;;;11.70;99.90;;;;;;5037772;28;20544;-76
2024/01/24 04:32:25;;;;;;;3.27;1.23;;;11.70;99.90;;;;;;5040570;28;20475;-76
2024/01/24 04:35:11;;;;;;;4.93;1.60;;;11.70;99.90;;;;;;5040790;28;20434;-76
2024/01/24 04:37:58;;;;;;;9.27;1.97;;;11.70;99.90;;;;;;5038914;28;20533;-76
2024/01/24 04:40:44;;;;;;;4.47;2.00;;;11.70;99.90;;;;;;5041999;28;20447;-75
2024/01/24 04:43:29;;;;;;;3.20;1.20;;;11.70;99.90;;;;;;5035583;28;20522;-76
2024/01/24 04:46:16;;;;;;;3.50;1.43;;;11.70;99.90;;;;;;5050698;28;21077;-76
2024/01/24 04:49:02;;;;;;;5.03;1.47;;;11.70;99.90;;;;;;5030990;28;20981;-76
2024/01/24 04:51:48;;;;;;;3.03;1.33;;;11.70;99.90;;;;;;5042465;28;20895;-76
2024/01/24 04:54:36;;;;;;;9.87;1.30;;;11.70;99.90;;;;;;5041314;28;20439;-76
2024/01/24 04:57:21;;;;;;;5.83;1.90;;;11.70;99.90;;;;;;5036875;28;20410;-76
2024/01/24 05:00:08;;;;;;;3.93;1.17;;;11.70;99.90;;;;;;5035609;28;20446;-76
2024/01/24 05:02:54;;;;;;;4.47;1.40;;;11.80;99.90;;;;;;5031837;28;20419;-76
2024/01/24 05:05:40;;;;;;;3.00;1.60;;;11.80;99.90;;;;;;5041743;28;20542;-76
2024/01/24 05:08:26;;;;;;;5.73;1.20;;;11.80;99.90;;;;;;5039205;28;20846;-76
2024/01/24 05:11:13;;;;;;;2.23;1.20;;;11.80;99.90;;;;;;5037169;28;20436;-76
2024/01/24 05:14:00;;;;;;;5.47;1.70;;;11.80;99.90;;;;;;5038504;28;20583;-76
2024/01/24 05:16:47;;;;;;;6.33;1.50;;;11.80;99.90;;;;;;5034776;28;20570;-76
2024/01/24 05:19:33;;;;;;;6.23;1.40;;;11.80;99.90;;;;;;5038774;28;20574;-76
2024/01/24 05:22:19;;;;;;;6.37;1.40;;;11.80;99.90;;;;;;5044322;28;20431;-76
2024/01/24 05:25:05;;;;;;;13.60;1.60;;;11.80;99.90;;;;;;5038595;28;20427;-76
2024/01/24 05:27:52;;;;;;;6.43;1.80;;;11.80;99.90;;;;;;5043088;28;20398;-76
2024/01/24 05:30:38;;;;;;;2.30;1.10;;;11.80;99.90;;;;;;5037116;28;20423;-76
2024/01/24 05:33:23;;;;;;;6.77;2.00;;;11.80;99.90;;;;;;5036979;28;20513;-76
2024/01/24 05:36:09;;;;;;;4.50;2.20;;;11.80;99.90;;;;;;5033820;28;20407;-76
2024/01/24 05:38:55;;;;;;;4.47;1.30;;;11.80;99.90;;;;;;5031810;28;20450;-76
2024/01/24 05:41:41;;;;;;;3.83;1.40;;;11.90;99.90;;;;;;5043103;28;20431;-76
2024/01/24 05:44:28;;;;;;;3.00;1.43;;;11.90;99.90;;;;;;5039198;28;20427;-76
2024/01/24 05:47:13;;;;;;;4.80;1.37;;;11.80;99.90;;;;;;5034936;28;20436;-77
2024/01/24 05:50:00;;;;;;;3.00;1.40;;;11.90;99.90;;;;;;5032216;28;20498;-76
2024/01/24 05:52:46;;;;;;;4.00;1.30;;;11.90;99.90;;;;;;5041530;28;20837;-76
2024/01/24 05:55:31;;;;;;;4.90;1.83;;;11.90;99.90;;;;;;5038140;28;20435;-76
2024/01/24 05:58:18;;;;;;;2.00;1.30;;;11.90;99.90;;;;;;5037967;28;20443;-76
2024/01/24 06:01:06;;;;;;;3.80;1.40;;;12.00;99.90;;;;;;5033032;28;20424;-76
2024/01/24 06:03:52;;;;;;;2.67;1.00;;;12.00;99.90;;;;;;5042757;28;20468;-76
2024/01/24 06:06:37;;;;;;;4.40;1.30;;;12.10;99.90;;;;;;5034193;28;20420;-76
2024/01/24 06:09:23;;;;;;;3.37;1.33;;;12.00;99.90;;;;;;5041633;28;20430;-76
2024/01/24 06:12:09;;;;;;;2.87;1.63;;;12.10;99.90;;;;;;5033810;28;20492;-76
2024/01/24 06:14:55;;;;;;;7.70;1.80;;;12.10;99.90;;;;;;5035172;28;20431;-76
2024/01/24 06:17:42;;;;;;;6.17;1.10;;;12.20;99.90;;;;;;5035831;28;20625;-76
2024/01/24 06:20:28;;;;;;;1.97;1.07;;;12.20;99.90;;;;;;5039950;28;20543;-75
2024/01/24 06:23:13;;;;;;;3.70;1.20;;;12.10;99.90;;;;;;5040078;28;20769;-76
2024/01/24 06:25:59;;;;;;;5.23;1.67;;;12.10;99.90;;;;;;5034090;28;20491;-75
2024/01/24 06:28:46;;;;;;;2.30;1.00;;;12.10;99.90;;;;;;5035893;28;20817;-76
2024/01/24 06:31:32;;;;;;;3.67;1.30;;;12.10;99.90;;;;;;5042663;28;20413;-76
2024/01/24 06:34:19;;;;;;;4.23;1.00;;;12.20;99.90;;;;;;5043394;28;20545;-76
2024/01/24 06:37:05;;;;;;;3.20;1.10;;;12.10;99.90;;;;;;5034338;28;20419;-75
2024/01/24 06:39:51;;;;;;;2.80;0.97;;;12.10;99.90;;;;;;5042536;28;20470;-76
2024/01/24 06:42:36;;;;;;;2.17;1.10;;;12.20;99.90;;;;;;5038893;28;20442;-75
2024/01/24 06:45:22;;;;;;;2.33;0.90;;;12.20;99.90;;;;;;5039168;28;20436;-76
2024/01/24 06:48:08;;;;;;;3.20;1.67;;;12.20;99.90;;;;;;5045890;28;20426;-74
2024/01/24 06:50:55;;;;;;;3.30;1.43;;;12.20;99.90;;;;;;5037272;28;20803;-76
2024/01/24 06:53:41;;;;;;;3.37;1.50;;;12.20;99.90;;;;;;5037382;28;20474;-77
2024/01/24 06:56:27;;;;;;;3.77;1.83;;;12.20;99.90;;;;;;5033318;28;20436;-77
2024/01/24 06:59:13;;;;;;;3.13;1.00;;;12.10;99.90;;;;;;5031023;28;20456;-77
2024/01/24 07:01:59;;;;;;;4.80;1.20;;;12.10;99.90;;;;;;5037783;28;20807;-77
2024/01/24 07:04:45;;;;;;;2.90;1.33;;;12.10;99.90;;;;;;5034557;28;20435;-76
2024/01/24 07:07:32;;;;;;;5.90;2.70;;;12.10;99.90;;;;;;5034157;28;20428;-77
2024/01/24 07:10:18;;;;;;;3.00;1.47;;;12.10;99.90;;;;;;5035083;28;20482;-76
2024/01/24 07:13:04;;;;;;;2.70;1.10;;;12.10;99.90;;;;;;5033129;28;20472;-77
2024/01/24 07:15:50;;;;;;;2.80;1.47;;;12.10;99.90;;;;;;5035577;28;20582;-75
2024/01/24 07:18:36;;;;;;;4.60;1.10;;;12.10;99.90;;;;;;5042283;28;20530;-74
2024/01/24 07:21:22;;;;;;;2.10;1.03;;;12.00;99.90;;;;;;5039920;28;20522;-76
2024/01/24 07:24:09;;;;;;;5.13;1.00;;;12.10;99.90;;;;;;5037470;28;20419;-75
2024/01/24 07:26:54;;;;;;;2.00;1.07;;;12.10;99.90;;;;;;5037510;28;20504;-76
2024/01/24 07:29:40;;;;;;;3.47;1.60;;;12.00;99.90;;;;;;5071570;22;20482;-70
2024/01/24 07:32:27;;;;;;;2.40;1.23;;;12.10;99.90;;;;;;5061704;28;20802;-70
2024/01/24 07:35:13;;;;;;;3.90;1.50;;;12.00;99.90;;;;;;5059595;28;20485;-70
2024/01/24 07:37:59;;;;;;;7.03;1.50;;;12.00;99.90;;;;;;5066812;28;20427;-71
2024/01/24 07:40:46;;;;;;;2.30;1.53;;;12.00;99.90;;;;;;5062058;28;20442;-72
2024/01/24 07:43:32;;;;;;;3.53;1.20;;;12.00;99.90;;;;;;5056346;28;20437;-72
2024/01/24 07:46:18;;;;;;;2.63;1.17;;;12.00;99.90;;;;;;5061329;28;20506;-72
2024/01/24 07:49:03;;;;;;;1.97;1.13;;;12.00;99.90;;;;;;5057591;28;20497;-72
2024/01/24 07:51:49;;;;;;;2.73;1.30;;;12.00;99.90;;;;;;5058949;28;20800;-72
2024/01/24 07:54:35;;;;;;;2.37;1.03;;;12.00;99.90;;;;;;5057524;28;20547;-73
2024/01/24 07:57:22;;;;;;;5.10;1.60;;;12.00;99.90;;;;;;5053875;28;20426;-72
2024/01/24 08:00:08;;;;;;;3.97;0.93;;;12.00;99.90;;;;;;5062662;28;20446;-72
2024/01/24 08:02:54;;;;;;;2.40;1.30;;;12.10;99.90;;;;;;5064503;28;20441;-72
2024/01/24 08:05:39;;;;;;;3.83;1.20;;;12.10;99.90;;;;;;5057934;28;20500;-72
2024/01/24 08:08:26;;;;;;;2.20;1.10;;;12.20;99.90;;;;;;5057147;28;20576;-72
2024/01/24 08:11:11;;;;;;;7.60;1.07;;;12.20;99.90;;;;;;5065176;28;20797;-72
2024/01/24 08:13:58;;;;;;;4.13;1.30;;;12.20;99.90;;;;;;5058305;28;20480;-72
2024/01/24 08:16:59;;;;;;;3.53;1.50;;;12.20;99.90;;;;;;5065363;28;20446;-72
2024/01/24 08:19:45;;;;;;;4.63;1.30;;;12.10;99.90;;;;;;5050841;28;20501;-72
2024/01/24 08:22:31;;;;;;;1.60;1.00;;;12.10;99.90;;;;;;5062625;28;20489;-72
2024/01/24 08:25:17;;;;;;;2.57;1.23;;;12.10;99.90;;;;;;5057371;28;20796;-72
2024/01/24 08:28:02;;;;;;;2.80;1.50;;;12.10;99.90;;;;;;5061794;28;20459;-72
2024/01/24 08:30:51;;;;;;;2.70;1.27;;;12.00;99.90;;;;;;5055493;28;20429;-72
2024/01/24 08:33:37;;;;;;;2.57;1.20;;;12.00;99.90;;;;;;5053922;28;20467;-72
2024/01/24 08:36:22;;;;;;;2.53;1.53;;;12.00;99.90;;;;;;5069288;28;21015;-74
2024/01/24 08:39:08;;;;;;;1.90;1.23;;;12.00;99.90;;;;;;5050240;28;20534;-71
2024/01/24 08:41:54;;;;;;;2.93;1.30;;;12.00;99.90;;;;;;5058880;28;20557;-72
2024/01/24 08:44:40;;;;;;;2.33;1.13;;;12.00;99.90;;;;;;5065321;28;20780;-73
2024/01/24 08:47:27;;;;;;;2.83;1.00;;;12.00;99.90;;;;;;5053520;28;20451;-73
2024/01/24 08:50:13;;;;;;;2.10;1.40;;;12.00;99.90;;;;;;5063310;28;20793;-73
2024/01/24 08:52:58;;;;;;;2.30;0.87;;;12.00;99.90;;;;;;5066929;28;20425;-74
2024/01/24 08:55:44;;;;;;;1.60;1.10;;;12.10;99.90;;;;;;5065386;28;20512;-74
2024/01/24 08:58:30;;;;;;;2.27;1.27;;;12.10;99.90;;;;;;5051473;28;20458;-72
2024/01/24 09:01:15;;;;;;;1.90;0.80;;;12.20;99.90;;;;;;5056423;28;20423;-72
2024/01/24 09:04:02;;;;;;;6.80;1.47;;;12.20;99.90;;;;;;5072356;28;20960;-72
2024/01/24 09:06:48;;;;;;;1.40;1.00;;;12.20;99.90;;;;;;5060643;28;20511;-72
2024/01/24 09:09:35;;;;;;;2.47;1.27;;;12.20;99.90;;;;;;5061049;28;20817;-72
2024/01/24 09:12:21;;;;;;;6.47;2.30;;;12.20;99.90;;;;;;5057727;28;20502;-72
2024/01/24 09:15:08;;;;;;;1.67;1.10;;;12.30;99.90;;;;;;5053660;28;20484;-72
2024/01/24 09:17:53;;;;;;;1.60;1.20;;;12.40;99.90;;;;;;5051233;28;21013;-72
2024/01/24 09:20:41;;;;;;;2.80;1.23;;;12.40;99.90;;;;;;5052278;28;21016;-72
2024/01/24 09:23:26;;;;;;;1.90;1.00;;;12.50;99.90;;;;;;5066859;28;20420;-72
2024/01/24 09:26:12;;;;;;;1.37;0.90;;;12.50;99.90;;;;;;5061727;28;20949;-73
2024/01/24 09:28:58;;;;;;;3.50;0.87;;;12.50;99.90;;;;;;5065088;28;20465;-72
2024/01/24 09:31:45;;;;;;;1.60;0.90;;;12.60;99.90;;;;;;5055864;28;20409;-72
2024/01/24 09:34:31;;;;;;;2.07;0.90;;;12.70;99.90;;;;;;5060931;28;20490;-72
2024/01/24 09:37:19;;;;;;;1.90;0.77;;;12.70;99.90;;;;;;5067143;28;20462;-72
2024/01/24 09:40:06;;;;;;;1.80;0.90;;;12.70;99.90;;;;;;5058625;28;20428;-72
2024/01/24 09:42:52;;;;;;;3.10;1.00;;;12.80;99.90;;;;;;5058847;28;20401;-72
2024/01/24 09:45:39;;;;;;;1.30;0.70;;;12.80;99.90;;;;;;5055548;28;20405;-72
2024/01/24 09:48:24;;;;;;;1.70;0.90;;;12.90;99.90;;;;;;5059876;28;21166;-73
2024/01/24 09:51:11;;;;;;;2.63;1.20;;;12.90;99.90;;;;;;5049925;28;20533;-72
2024/01/24 09:54:02;;;;;;;2.90;1.17;;;12.90;99.90;;;;;;5061571;28;20477;-72
2024/01/24 09:56:49;;;;;;;2.17;1.63;;;12.90;99.90;;;;;;5054568;28;20530;-73
2024/01/24 09:59:35;;;;;;;2.50;1.00;;;12.90;99.90;;;;;;5056995;28;20491;-72
2024/01/24 10:02:21;;;;;;;3.60;1.13;;;12.90;99.90;;;;;;5061771;28;20770;-72
2024/01/24 10:05:13;;;;;;;2.47;1.10;;;13.00;99.90;;;;;;5065605;28;20423;-72
2024/01/24 10:07:59;;;;;;;3.07;1.00;;;13.00;99.90;;;;;;5060159;28;20454;-72
2024/01/24 10:10:46;;;;;;;4.93;1.63;;;13.10;99.90;;;;;;5061574;28;20640;-72
2024/01/24 10:13:31;;;;;;;2.23;1.10;;;13.10;99.90;;;;;;5057358;28;20453;-72
2024/01/24 10:16:18;;;;;;;1.97;0.80;;;13.10;99.90;;;;;;5061419;28;20393;-73
2024/01/24 10:19:11;;;;;;;2.80;1.40;;;13.20;99.90;;;;;;5104186;27;20550;-71
2024/01/24 10:21:57;;;;;;;3.40;1.17;;;13.30;99.90;;;;;;5078061;28;20422;-72
2024/01/24 10:24:42;;;;;;;5.47;1.13;;;13.40;99.90;;;;;;5073978;28;20433;-72
2024/01/24 10:27:28;;;;;;;4.33;1.03;;;13.40;99.90;;;;;;5080505;28;20432;-72
2024/01/24 10:30:15;;;;;;;2.93;1.00;;;13.50;99.90;;;;;;5081723;28;20416;-72
2024/01/24 10:33:02;;;;;;;3.90;1.33;;;13.50;99.90;;;;;;5078758;28;20419;-71
2024/01/24 10:35:49;;;;;;;5.17;1.30;;;13.60;99.90;;;;;;5072229;28;20426;-71
2024/01/24 10:38:42;;;;;;;5.43;1.10;;;13.60;99.90;;;;;;5076531;28;20485;-71
2024/01/24 10:41:30;;;;;;;7.70;1.77;;;13.60;99.90;;;;;;5070067;28;20800;-71
2024/01/24 10:44:19;;;;;;;3.57;1.33;;;13.70;99.90;;;;;;5078543;28;20419;-71
2024/01/24 10:47:06;;;;;;;3.37;0.70;;;13.90;99.90;;;;;;5083567;28;20426;-72
2024/01/24 10:49:52;;;;;;;7.27;1.37;;;14.00;99.90;;;;;;5073018;28;20465;-72
2024/01/24 10:52:40;;;;;;;7.00;1.27;;;14.00;99.90;;;;;;5075492;28;20447;-71
2024/01/24 10:55:26;;;;;;;6.13;1.27;;;14.00;99.90;;;;;;5079840;28;20478;-72
2024/01/24 10:58:12;;;;;;;8.17;2.00;;;13.90;99.90;;;;;;5070592;28;20495;-73
2024/01/24 11:00:57;;;;;;;5.00;0.93;;;13.80;99.90;;;;;;5074530;28;20483;-72
2024/01/24 11:03:45;;;;;;;8.40;1.50;;;13.70;99.90;;;;;;5076131;28;20442;-72
2024/01/24 11:06:33;;;;;;;3.77;1.50;;;13.70;99.90;;;;;;5075748;28;20499;-73
2024/01/24 11:09:27;;;;;;;7.70;1.67;;;13.60;99.90;;;;;;5077458;28;20413;-72
2024/01/24 11:12:13;;;;;;;6.27;2.00;;;13.50;99.90;;;;;;5071417;28;20952;-70
2024/01/24 11:15:05;;;;;;;7.97;1.43;;;13.50;99.90;;;;;;5074117;28;20557;-71
2024/01/24 11:18:25;;;;;;;8.13;2.20;;;13.50;99.90;;;;;;5071971;28;20534;-70
2024/01/24 11:21:10;;;;;;;4.93;1.40;;;13.50;99.90;;;;;;5068748;28;20421;-71
2024/01/24 11:23:56;;;;;;;8.00;2.00;;;13.50;99.90;;;;;;5079272;28;20430;-70
2024/01/24 11:26:49;;;;;;;13.90;1.90;;;13.40;99.90;;;;;;5067568;28;20421;-71
2024/01/24 11:29:35;;;;;;;5.53;1.73;;;13.40;99.90;;;;;;5069396;28;20421;-70
2024/01/24 11:32:59;;;;;;;8.77;2.00;;;13.40;99.90;;;;;;5064509;28;20392;-70
2024/01/24 11:35:46;;;;;;;5.27;1.63;;;13.50;99.90;;;;;;5053558;28;20475;-70
2024/01/24 11:38:37;;;;;;;7.40;1.70;;;13.50;99.90;;;;;;5062703;28;20608;-70
2024/01/24 11:41:26;;;;;;;6.83;3.33;;;13.40;99.90;;;;;;5068596;28;20637;-70
2024/01/24 11:44:13;;;;;;;8.73;4.07;;;13.40;99.90;;;;;;5059908;28;20430;-70
2024/01/24 11:46:59;;;;;;;5.37;1.73;;;13.40;99.90;;;;;;5062698;28;20427;-70
2024/01/24 11:49:49;;;;;;;6.80;2.73;;;13.40;99.90;;;;;;5061627;28;20421;-70
2024/01/24 11:52:35;;;;;;;6.80;1.90;;;13.40;99.90;;;;;;5067149;28;20790;-70
2024/01/24 11:55:21;;;;;;;8.40;1.63;;;13.40;99.90;;;;;;5060340;28;20398;-70
2024/01/24 11:58:06;;;;;;;3.17;1.37;;;13.40;99.90;;;;;;5068662;28;20474;-70
2024/01/24 12:00:54;;;;;;;12.63;2.00;;;13.30;99.90;;;;;;5061306;28;20396;-70
2024/01/24 12:03:47;;;;;;;13.20;2.03;;;13.30;99.90;;;;;;5064383;28;20426;-70
2024/01/24 12:06:35;;;;;;;5.60;1.60;;;13.20;99.90;;;;;;5058820;28;20427;-70
2024/01/24 12:09:21;;;;;;;7.33;1.97;;;13.30;99.90;;;;;;5060508;28;20444;-70
2024/01/24 12:12:08;;;;;;;11.10;1.60;;;13.30;99.90;;;;;;5065046;28;20511;-70
2024/01/24 12:14:55;;;;;;;8.67;2.73;;;13.30;99.90;;;;;;5061336;28;20509;-70
2024/01/24 12:17:44;;;;;;;10.83;2.20;;;13.30;99.90;;;;;;5064162;28;20485;-70
2024/01/24 12:20:29;;;;;;;10.27;2.17;;;13.30;99.90;;;;;;5066971;28;20501;-70
2024/01/24 12:23:16;;;;;;;11.63;1.90;;;13.30;99.90;;;;;;5057350;28;20945;-70
2024/01/24 12:26:02;;;;;;;10.80;2.23;;;13.30;99.90;;;;;;5068589;28;20397;-70
2024/01/24 12:28:48;;;;;;;9.17;2.60;;;13.30;99.90;;;;;;5064499;28;20440;-70
2024/01/24 12:31:34;;;;;;;13.50;1.87;;;13.30;99.90;;;;;;5068186;28;20500;-70
2024/01/24 12:34:23;;;;;;;6.37;2.20;;;13.30;99.90;;;;;;5064847;28;20422;-70
2024/01/24 12:37:08;;;;;;;17.40;1.93;;;13.30;99.90;;;;;;5065299;28;20409;-70
2024/01/24 12:39:54;;;;;;;12.33;2.50;;;13.30;99.90;;;;;;5048042;28;20477;-70
2024/01/24 12:42:40;;;;;;;22.53;3.70;;;13.40;99.90;;;;;;5067824;28;20422;-70
2024/01/24 12:45:28;;;;;;;12.23;2.53;;;13.60;99.90;;;;;;5064955;28;20503;-70
2024/01/24 12:48:13;;;;;;;16.30;3.40;;;13.60;98.30;;;;;;5059576;28;20602;-70
2024/01/24 12:51:00;;;;;;;15.63;2.60;;;13.50;99.90;;;;;;5058490;28;20517;-70
2024/01/24 12:53:46;;;;;;;15.77;3.30;;;13.40;98.40;;;;;;5064376;28;20907;-70
2024/01/24 12:56:31;;;;;;;13.40;2.60;;;13.40;99.90;;;;;;5053150;28;20397;-70
2024/01/24 12:59:17;;;;;;;14.73;4.33;;;13.30;99.40;;;;;;5061736;28;20478;-72
2024/01/24 13:02:03;;;;;;;15.20;3.60;;;13.30;99.90;;;;;;5063432;28;20832;-71
2024/01/24 13:04:49;;;;;;;17.00;2.77;;;13.30;99.90;;;;;;5057553;28;20641;-70
2024/01/24 13:07:36;;;;;;;25.10;4.77;;;13.20;99.90;;;;;;5054965;28;20407;-71
2024/01/24 13:10:21;;;;;;;15.70;3.03;;;13.20;96.90;;;;;;5061903;28;20427;-70
2024/01/24 13:13:08;;;;;;;11.37;2.77;;;13.20;97.70;;;;;;5057883;28;20945;-70
2024/01/24 13:15:56;;;;;;;18.60;3.90;;;13.10;95.90;;;;;;5068448;28;20482;-71
2024/01/24 13:18:42;;;;;;;11.77;3.57;;;13.10;95.00;;;;;;5066766;28;20451;-71
2024/01/24 13:21:27;;;;;;;20.33;5.50;;;13.10;95.50;;;;;;5062316;28;20903;-71
2024/01/24 13:24:14;;;;;;;24.70;5.00;;;13.10;96.00;;;;;;5065656;28;20408;-70
2024/01/24 13:27:00;;;;;;;17.83;3.30;;;13.10;95.30;;;;;;5065582;28;20442;-71
2024/01/24 13:29:46;;;;;;;18.93;4.50;;;13.00;94.60;;;;;;5066929;22;20450;-71
2024/01/24 13:32:31;;;;;;;26.93;7.53;;;13.00;95.60;;;;;;5047794;28;20449;-71
2024/01/24 13:35:17;;;;;;;23.50;4.03;;;13.00;94.50;;;;;;5043264;28;20439;-71
2024/01/24 13:38:03;;;;;;;25.17;4.10;;;13.00;93.70;;;;;;5047501;28;20500;-71
2024/01/24 13:40:50;;;;;;;13.73;3.00;;;13.00;94.00;;;;;;5049642;28;20581;-71
2024/01/24 13:43:36;;;;;;;22.13;4.00;;;13.00;93.30;;;;;;5049988;28;20396;-71
2024/01/24 13:46:21;;;;;;;21.90;4.20;;;13.00;93.80;;;;;;5044868;28;20443;-71
2024/01/24 13:49:08;;;;;;;18.07;3.70;;;12.90;94.50;;;;;;5037457;28;20422;-71
2024/01/24 13:51:56;;;;;;;20.63;3.50;;;12.90;95.00;;;;;;5042046;28;20436;-71
2024/01/24 13:54:42;;;;;;;13.17;3.83;;;12.80;95.90;;;;;;5037905;28;20428;-71
2024/01/24 13:57:29;;;;;;;15.80;3.30;;;12.80;95.20;;;;;;5047019;28;20427;-71
2024/01/24 14:00:15;;;;;;;19.57;3.50;;;12.80;95.60;;;;;;5048805;28;20421;-71
2024/01/24 14:03:01;;;;;;;10.70;3.20;;;12.80;98.10;;;;;;5048406;28;20944;-71
2024/01/24 14:05:47;;;;;;;16.80;4.00;;;12.80;98.00;;;;;;5037789;28;20423;-71
2024/01/24 14:08:33;;;;;;;10.80;3.87;;;12.80;98.30;;;;;;5047616;28;20942;-71
2024/01/24 14:11:18;;;;;;;28.60;4.40;;;12.80;98.50;;;;;;5047379;28;20947;-71
2024/01/24 14:14:05;;;;;;;25.60;4.03;;;12.80;94.40;;;;;;5043055;28;20446;-72
2024/01/24 14:16:51;;;;;;;19.70;4.63;;;12.80;93.90;;;;;;5048671;28;20422;-71
2024/01/24 14:19:36;;;;;;;15.20;4.13;;;12.70;93.90;;;;;;5048591;28;20474;-71
2024/01/24 14:22:22;;;;;;;12.80;3.93;;;12.70;92.80;;;;;;5045369;28;20435;-71
2024/01/24 14:25:09;;;;;;;21.47;3.07;;;12.80;92.90;;;;;;5049256;28;20451;-71